Sumach, Washington
Current Conditions -  °F | °C
As of 1:53 AM on Saturday 22 Nov 2014 (Local Time) from KYKM Reporting Station
Haze Haze  
Wind Chill: 33°   Ceiling: 300
Heat Index: 33°   Visibility: 1.7mi
Dew Point: 31°   Wind: 3mph
Humidity: 92%   Direction: 350°N
Pressure: 29.54"   Gusts: NA
Location:  46.562°N, 120.899°W
Report Text: KYKM 220953Z AUTO 35003KT 1 3/4SM BR OVC003 01/M01 A2954 RMK AO2 SLP014 T00061006
Loading
Personal Weather Stations






























Interactive Weather Map New forecast layout! Learn more

10-Day Weather Forecast

Advertisements
Track Severe Weather on mobile